sensor_id;sensor_type;location;lat;lon;timestamp;P1;durP1;ratioP1;P2;durP2;ratioP2
4810;SDS011;2419;51.276;6.472;2024-02-16T00:02:01;3.20;;;1.57;;
4810;SDS011;2419;51.276;6.472;2024-02-16T00:04:31;3.40;;;1.83;;
4810;SDS011;2419;51.276;6.472;2024-02-16T00:07:00;3.40;;;1.90;;
4810;SDS011;2419;51.276;6.472;2024-02-16T00:09:28;3.30;;;1.70;;
4810;SDS011;2419;51.276;6.472;2024-02-16T00:11:56;2.27;;;2.00;;
4810;SDS011;2419;51.276;6.472;2024-02-16T00:14:24;4.97;;;2.23;;
4810;SDS011;2419;51.276;6.472;2024-02-16T00:16:52;2.13;;;1.90;;
4810;SDS011;2419;51.276;6.472;2024-02-16T00:19:20;4.57;;;1.93;;
4810;SDS011;2419;51.276;6.472;2024-02-16T00:21:50;2.70;;;1.87;;
4810;SDS011;2419;51.276;6.472;2024-02-16T00:24:18;3.13;;;1.93;;
4810;SDS011;2419;51.276;6.472;2024-02-16T00:26:46;2.53;;;1.90;;
4810;SDS011;2419;51.276;6.472;2024-02-16T00:29:14;1.80;;;1.60;;
4810;SDS011;2419;51.276;6.472;2024-02-16T00:31:42;3.03;;;1.87;;
4810;SDS011;2419;51.276;6.472;2024-02-16T00:34:11;3.13;;;1.33;;
4810;SDS011;2419;51.276;6.472;2024-02-16T00:36:39;3.07;;;1.83;;
4810;SDS011;2419;51.276;6.472;2024-02-16T00:39:08;5.77;;;2.10;;
4810;SDS011;2419;51.276;6.472;2024-02-16T00:41:36;3.50;;;1.53;;
4810;SDS011;2419;51.276;6.472;2024-02-16T00:44:05;3.00;;;1.80;;
4810;SDS011;2419;51.276;6.472;2024-02-16T00:46:33;4.90;;;2.13;;
4810;SDS011;2419;51.276;6.472;2024-02-16T00:49:04;3.73;;;1.77;;
4810;SDS011;2419;51.276;6.472;2024-02-16T00:51:32;4.23;;;2.10;;
4810;SDS011;2419;51.276;6.472;2024-02-16T00:54:00;4.10;;;1.60;;
4810;SDS011;2419;51.276;6.472;2024-02-16T00:56:31;4.37;;;1.90;;
4810;SDS011;2419;51.276;6.472;2024-02-16T00:59:00;2.07;;;1.77;;
4810;SDS011;2419;51.276;6.472;2024-02-16T01:01:29;3.97;;;1.90;;
4810;SDS011;2419;51.276;6.472;2024-02-16T01:03:57;4.70;;;2.20;;
4810;SDS011;2419;51.276;6.472;2024-02-16T01:06:25;3.00;;;1.83;;
4810;SDS011;2419;51.276;6.472;2024-02-16T01:08:53;1.63;;;1.53;;
4810;SDS011;2419;51.276;6.472;2024-02-16T01:11:22;5.43;;;2.13;;
4810;SDS011;2419;51.276;6.472;2024-02-16T01:13:51;2.20;;;1.60;;
4810;SDS011;2419;51.276;6.472;2024-02-16T01:16:20;5.33;;;2.10;;
4810;SDS011;2419;51.276;6.472;2024-02-16T01:18:48;1.63;;;1.40;;
4810;SDS011;2419;51.276;6.472;2024-02-16T01:21:16;3.33;;;2.00;;
4810;SDS011;2419;51.276;6.472;2024-02-16T01:23:44;3.53;;;2.20;;
4810;SDS011;2419;51.276;6.472;2024-02-16T01:26:12;3.13;;;2.00;;
4810;SDS011;2419;51.276;6.472;2024-02-16T01:28:41;6.90;;;1.97;;
4810;SDS011;2419;51.276;6.472;2024-02-16T01:31:11;2.93;;;1.50;;
4810;SDS011;2419;51.276;6.472;2024-02-16T01:33:39;2.20;;;1.97;;
4810;SDS011;2419;51.276;6.472;2024-02-16T01:36:07;2.90;;;2.10;;
4810;SDS011;2419;51.276;6.472;2024-02-16T01:38:35;2.73;;;1.93;;
4810;SDS011;2419;51.276;6.472;2024-02-16T01:41:03;3.83;;;1.73;;
4810;SDS011;2419;51.276;6.472;2024-02-16T01:43:33;5.37;;;1.83;;
4810;SDS011;2419;51.276;6.472;2024-02-16T01:46:02;6.03;;;1.93;;
4810;SDS011;2419;51.276;6.472;2024-02-16T01:48:31;3.70;;;1.90;;
4810;SDS011;2419;51.276;6.472;2024-02-16T01:50:59;5.97;;;2.33;;
4810;SDS011;2419;51.276;6.472;2024-02-16T01:53:28;8.23;;;2.10;;
4810;SDS011;2419;51.276;6.472;2024-02-16T01:55:57;6.67;;;1.87;;
4810;SDS011;2419;51.276;6.472;2024-02-16T01:58:25;5.23;;;2.00;;
4810;SDS011;2419;51.276;6.472;2024-02-16T02:00:54;3.50;;;2.43;;
4810;SDS011;2419;51.276;6.472;2024-02-16T02:03:22;5.00;;;2.17;;
4810;SDS011;2419;51.276;6.472;2024-02-16T02:05:52;3.30;;;2.40;;
4810;SDS011;2419;51.276;6.472;2024-02-16T02:08:22;2.60;;;1.73;;
4810;SDS011;2419;51.276;6.472;2024-02-16T02:10:50;3.20;;;2.37;;
4810;SDS011;2419;51.276;6.472;2024-02-16T02:13:18;2.57;;;1.53;;
4810;SDS011;2419;51.276;6.472;2024-02-16T02:15:48;3.87;;;2.13;;
4810;SDS011;2419;51.276;6.472;2024-02-16T02:18:16;3.67;;;1.97;;
4810;SDS011;2419;51.276;6.472;2024-02-16T02:20:45;3.07;;;1.83;;
4810;SDS011;2419;51.276;6.472;2024-02-16T02:23:14;3.53;;;1.87;;
4810;SDS011;2419;51.276;6.472;2024-02-16T02:25:42;3.60;;;2.13;;
4810;SDS011;2419;51.276;6.472;2024-02-16T02:28:10;2.13;;;1.77;;
4810;SDS011;2419;51.276;6.472;2024-02-16T02:30:38;2.80;;;1.90;;
4810;SDS011;2419;51.276;6.472;2024-02-16T02:33:06;2.40;;;1.97;;
4810;SDS011;2419;51.276;6.472;2024-02-16T02:35:35;3.77;;;2.40;;
4810;SDS011;2419;51.276;6.472;2024-02-16T02:38:03;2.73;;;1.87;;
4810;SDS011;2419;51.276;6.472;2024-02-16T02:40:33;2.70;;;2.13;;
4810;SDS011;2419;51.276;6.472;2024-02-16T02:43:01;4.57;;;2.13;;
4810;SDS011;2419;51.276;6.472;2024-02-16T02:45:30;4.03;;;2.00;;
4810;SDS011;2419;51.276;6.472;2024-02-16T02:47:58;8.40;;;2.70;;
4810;SDS011;2419;51.276;6.472;2024-02-16T02:50:26;3.47;;;2.17;;
4810;SDS011;2419;51.276;6.472;2024-02-16T02:52:54;4.00;;;2.07;;
4810;SDS011;2419;51.276;6.472;2024-02-16T02:55:22;5.87;;;2.37;;
4810;SDS011;2419;51.276;6.472;2024-02-16T02:57:52;6.60;;;1.90;;
4810;SDS011;2419;51.276;6.472;2024-02-16T03:00:20;2.63;;;1.97;;
4810;SDS011;2419;51.276;6.472;2024-02-16T03:02:48;4.47;;;2.40;;
4810;SDS011;2419;51.276;6.472;2024-02-16T03:05:17;7.83;;;2.33;;
4810;SDS011;2419;51.276;6.472;2024-02-16T03:07:46;3.33;;;2.03;;
4810;SDS011;2419;51.276;6.472;2024-02-16T03:10:14;2.50;;;2.00;;
4810;SDS011;2419;51.276;6.472;2024-02-16T03:12:47;2.43;;;1.67;;
4810;SDS011;2419;51.276;6.472;2024-02-16T03:15:17;5.93;;;2.20;;
4810;SDS011;2419;51.276;6.472;2024-02-16T03:17:45;2.13;;;1.90;;
4810;SDS011;2419;51.276;6.472;2024-02-16T03:20:14;3.57;;;2.13;;
4810;SDS011;2419;51.276;6.472;2024-02-16T03:22:43;6.17;;;2.07;;
4810;SDS011;2419;51.276;6.472;2024-02-16T03:25:11;2.50;;;1.77;;
4810;SDS011;2419;51.276;6.472;2024-02-16T03:27:39;5.93;;;2.30;;
4810;SDS011;2419;51.276;6.472;2024-02-16T03:30:07;2.00;;;1.80;;
4810;SDS011;2419;51.276;6.472;2024-02-16T03:32:38;4.27;;;1.90;;
4810;SDS011;2419;51.276;6.472;2024-02-16T03:35:07;4.50;;;1.97;;
4810;SDS011;2419;51.276;6.472;2024-02-16T03:37:35;6.30;;;2.10;;
4810;SDS011;2419;51.276;6.472;2024-02-16T03:40:04;2.30;;;2.10;;
4810;SDS011;2419;51.276;6.472;2024-02-16T03:42:34;3.10;;;1.80;;
4810;SDS011;2419;51.276;6.472;2024-02-16T03:45:02;10.17;;;2.27;;
4810;SDS011;2419;51.276;6.472;2024-02-16T03:47:31;3.73;;;2.20;;
4810;SDS011;2419;51.276;6.472;2024-02-16T03:50:00;2.83;;;2.10;;
4810;SDS011;2419;51.276;6.472;2024-02-16T03:52:29;4.97;;;2.00;;
4810;SDS011;2419;51.276;6.472;2024-02-16T03:54:58;2.00;;;1.80;;
4810;SDS011;2419;51.276;6.472;2024-02-16T03:57:26;5.60;;;2.00;;
4810;SDS011;2419;51.276;6.472;2024-02-16T03:59:54;3.70;;;2.37;;
4810;SDS011;2419;51.276;6.472;2024-02-16T04:02:22;5.53;;;2.13;;
4810;SDS011;2419;51.276;6.472;2024-02-16T04:04:50;3.10;;;1.90;;
4810;SDS011;2419;51.276;6.472;2024-02-16T04:07:20;1.97;;;1.80;;
4810;SDS011;2419;51.276;6.472;2024-02-16T04:09:48;3.77;;;1.80;;
4810;SDS011;2419;51.276;6.472;2024-02-16T04:12:16;5.60;;;1.83;;
4810;SDS011;2419;51.276;6.472;2024-02-16T04:14:44;3.23;;;1.97;;
4810;SDS011;2419;51.276;6.472;2024-02-16T04:17:12;3.70;;;1.90;;
4810;SDS011;2419;51.276;6.472;2024-02-16T04:19:40;4.60;;;1.87;;
4810;SDS011;2419;51.276;6.472;2024-02-16T04:22:08;7.20;;;2.33;;
4810;SDS011;2419;51.276;6.472;2024-02-16T04:24:38;3.67;;;1.80;;
4810;SDS011;2419;51.276;6.472;2024-02-16T04:27:06;2.00;;;1.80;;
4810;SDS011;2419;51.276;6.472;2024-02-16T04:29:35;7.13;;;2.47;;
4810;SDS011;2419;51.276;6.472;2024-02-16T04:32:03;3.93;;;2.30;;
4810;SDS011;2419;51.276;6.472;2024-02-16T04:34:31;3.30;;;2.53;;
4810;SDS011;2419;51.276;6.472;2024-02-16T04:36:59;2.37;;;1.80;;
4810;SDS011;2419;51.276;6.472;2024-02-16T04:39:27;8.10;;;2.57;;
4810;SDS011;2419;51.276;6.472;2024-02-16T04:41:58;2.73;;;2.00;;
4810;SDS011;2419;51.276;6.472;2024-02-16T04:44:26;5.57;;;2.30;;
4810;SDS011;2419;51.276;6.472;2024-02-16T04:46:54;5.27;;;2.50;;
4810;SDS011;2419;51.276;6.472;2024-02-16T04:49:22;2.73;;;1.90;;
4810;SDS011;2419;51.276;6.472;2024-02-16T04:51:51;7.13;;;2.20;;
4810;SDS011;2419;51.276;6.472;2024-02-16T04:54:19;3.00;;;2.20;;
4810;SDS011;2419;51.276;6.472;2024-02-16T04:56:47;3.43;;;2.10;;
4810;SDS011;2419;51.276;6.472;2024-02-16T04:59:17;3.40;;;1.70;;
4810;SDS011;2419;51.276;6.472;2024-02-16T05:01:45;3.40;;;2.20;;
4810;SDS011;2419;51.276;6.472;2024-02-16T05:04:13;4.80;;;2.10;;
4810;SDS011;2419;51.276;6.472;2024-02-16T05:06:43;3.23;;;2.10;;
4810;SDS011;2419;51.276;6.472;2024-02-16T05:09:13;4.93;;;2.40;;
4810;SDS011;2419;51.276;6.472;2024-02-16T05:11:43;2.47;;;2.10;;
4810;SDS011;2419;51.276;6.472;2024-02-16T05:14:12;2.73;;;2.40;;
4810;SDS011;2419;51.276;6.472;2024-02-16T05:16:43;6.87;;;2.70;;
4810;SDS011;2419;51.276;6.472;2024-02-16T05:19:12;4.40;;;2.20;;
4810;SDS011;2419;51.276;6.472;2024-02-16T05:21:40;4.53;;;2.43;;
4810;SDS011;2419;51.276;6.472;2024-02-16T05:24:08;4.27;;;2.43;;
4810;SDS011;2419;51.276;6.472;2024-02-16T05:26:36;2.87;;;1.93;;
4810;SDS011;2419;51.276;6.472;2024-02-16T05:29:05;3.57;;;2.53;;
4810;SDS011;2419;51.276;6.472;2024-02-16T05:31:33;4.50;;;2.70;;
4810;SDS011;2419;51.276;6.472;2024-02-16T05:34:02;3.93;;;2.47;;
4810;SDS011;2419;51.276;6.472;2024-02-16T05:36:30;3.40;;;2.50;;
4810;SDS011;2419;51.276;6.472;2024-02-16T05:39:02;6.13;;;3.03;;
4810;SDS011;2419;51.276;6.472;2024-02-16T05:41:46;13.90;;;2.67;;
4810;SDS011;2419;51.276;6.472;2024-02-16T05:44:15;6.03;;;2.63;;
4810;SDS011;2419;51.276;6.472;2024-02-16T05:46:44;3.50;;;2.40;;
4810;SDS011;2419;51.276;6.472;2024-02-16T05:49:13;9.50;;;2.70;;
4810;SDS011;2419;51.276;6.472;2024-02-16T05:51:42;3.73;;;2.13;;
4810;SDS011;2419;51.276;6.472;2024-02-16T05:54:29;4.00;;;2.23;;
4810;SDS011;2419;51.276;6.472;2024-02-16T05:57:00;7.73;;;2.70;;
4810;SDS011;2419;51.276;6.472;2024-02-16T05:59:30;3.73;;;2.90;;
4810;SDS011;2419;51.276;6.472;2024-02-16T06:01:59;5.43;;;2.20;;
4810;SDS011;2419;51.276;6.472;2024-02-16T06:04:28;4.80;;;2.10;;
4810;SDS011;2419;51.276;6.472;2024-02-16T06:06:56;5.13;;;2.50;;
4810;SDS011;2419;51.276;6.472;2024-02-16T06:09:25;6.23;;;2.97;;
4810;SDS011;2419;51.276;6.472;2024-02-16T06:12:01;3.90;;;2.40;;
4810;SDS011;2419;51.276;6.472;2024-02-16T06:14:31;5.40;;;2.37;;
4810;SDS011;2419;51.276;6.472;2024-02-16T06:16:59;4.30;;;2.80;;
4810;SDS011;2419;51.276;6.472;2024-02-16T06:19:29;6.93;;;2.27;;
4810;SDS011;2419;51.276;6.472;2024-02-16T06:21:57;4.87;;;2.40;;
4810;SDS011;2419;51.276;6.472;2024-02-16T06:24:25;4.80;;;2.53;;
4810;SDS011;2419;51.276;6.472;2024-02-16T06:26:53;4.33;;;2.23;;
4810;SDS011;2419;51.276;6.472;2024-02-16T06:29:23;5.90;;;2.70;;
4810;SDS011;2419;51.276;6.472;2024-02-16T06:31:51;6.10;;;2.63;;
4810;SDS011;2419;51.276;6.472;2024-02-16T06:34:19;10.20;;;3.00;;
4810;SDS011;2419;51.276;6.472;2024-02-16T06:36:49;4.27;;;2.40;;
4810;SDS011;2419;51.276;6.472;2024-02-16T06:39:17;3.60;;;2.27;;
4810;SDS011;2419;51.276;6.472;2024-02-16T06:41:46;5.40;;;2.37;;
4810;SDS011;2419;51.276;6.472;2024-02-16T06:44:15;6.37;;;2.70;;
4810;SDS011;2419;51.276;6.472;2024-02-16T06:46:48;4.40;;;2.67;;
4810;SDS011;2419;51.276;6.472;2024-02-16T06:49:16;3.30;;;2.47;;
4810;SDS011;2419;51.276;6.472;2024-02-16T06:51:45;3.13;;;2.10;;
4810;SDS011;2419;51.276;6.472;2024-02-16T06:54:14;4.10;;;3.00;;
4810;SDS011;2419;51.276;6.472;2024-02-16T06:56:42;5.50;;;2.73;;
4810;SDS011;2419;51.276;6.472;2024-02-16T06:59:11;8.03;;;3.00;;
4810;SDS011;2419;51.276;6.472;2024-02-16T07:01:39;6.50;;;2.90;;
4810;SDS011;2419;51.276;6.472;2024-02-16T07:04:10;3.90;;;2.30;;
4810;SDS011;2419;51.276;6.472;2024-02-16T07:06:38;5.37;;;2.70;;
4810;SDS011;2419;51.276;6.472;2024-02-16T07:09:07;5.90;;;2.30;;
4810;SDS011;2419;51.276;6.472;2024-02-16T07:11:36;3.83;;;2.67;;
4810;SDS011;2419;51.276;6.472;2024-02-16T07:14:05;4.20;;;2.37;;
4810;SDS011;2419;51.276;6.472;2024-02-16T07:16:34;4.50;;;2.63;;
4810;SDS011;2419;51.276;6.472;2024-02-16T07:19:02;8.07;;;2.90;;
4810;SDS011;2419;51.276;6.472;2024-02-16T07:21:31;3.17;;;2.40;;
4810;SDS011;2419;51.276;6.472;2024-02-16T07:24:00;5.57;;;2.40;;
4810;SDS011;2419;51.276;6.472;2024-02-16T07:26:28;5.37;;;2.30;;
4810;SDS011;2419;51.276;6.472;2024-02-16T07:28:58;6.73;;;2.47;;
4810;SDS011;2419;51.276;6.472;2024-02-16T07:31:30;6.03;;;2.73;;
4810;SDS011;2419;51.276;6.472;2024-02-16T07:33:59;4.57;;;2.40;;
4810;SDS011;2419;51.276;6.472;2024-02-16T07:36:28;3.93;;;2.40;;
4810;SDS011;2419;51.276;6.472;2024-02-16T07:38:58;3.20;;;2.27;;
4810;SDS011;2419;51.276;6.472;2024-02-16T07:41:26;3.87;;;2.13;;
4810;SDS011;2419;51.276;6.472;2024-02-16T07:43:54;4.50;;;2.40;;
4810;SDS011;2419;51.276;6.472;2024-02-16T07:46:24;7.93;;;3.77;;
4810;SDS011;2419;51.276;6.472;2024-02-16T07:48:52;5.37;;;2.60;;
4810;SDS011;2419;51.276;6.472;2024-02-16T07:51:20;3.27;;;2.40;;
4810;SDS011;2419;51.276;6.472;2024-02-16T07:53:48;3.80;;;2.20;;
4810;SDS011;2419;51.276;6.472;2024-02-16T07:56:17;6.90;;;2.17;;
4810;SDS011;2419;51.276;6.472;2024-02-16T07:58:47;5.10;;;2.20;;
4810;SDS011;2419;51.276;6.472;2024-02-16T08:01:15;6.33;;;2.47;;
4810;SDS011;2419;51.276;6.472;2024-02-16T08:03:44;4.53;;;2.57;;
4810;SDS011;2419;51.276;6.472;2024-02-16T08:06:13;6.90;;;2.40;;
4810;SDS011;2419;51.276;6.472;2024-02-16T08:08:43;5.27;;;2.50;;
4810;SDS011;2419;51.276;6.472;2024-02-16T08:11:11;4.33;;;1.90;;
4810;SDS011;2419;51.276;6.472;2024-02-16T08:13:39;8.03;;;2.33;;
4810;SDS011;2419;51.276;6.472;2024-02-16T08:16:07;3.27;;;2.00;;
4810;SDS011;2419;51.276;6.472;2024-02-16T08:18:35;3.33;;;1.83;;
4810;SDS011;2419;51.276;6.472;2024-02-16T08:21:05;4.23;;;2.50;;
4810;SDS011;2419;51.276;6.472;2024-02-16T08:23:34;5.47;;;2.23;;
4810;SDS011;2419;51.276;6.472;2024-02-16T08:26:02;12.13;;;2.70;;
4810;SDS011;2419;51.276;6.472;2024-02-16T08:28:30;5.73;;;2.37;;
4810;SDS011;2419;51.276;6.472;2024-02-16T08:30:57;6.00;;;3.27;;
4810;SDS011;2419;51.276;6.472;2024-02-16T08:33:25;4.23;;;2.70;;
4810;SDS011;2419;51.276;6.472;2024-02-16T08:35:53;4.27;;;2.40;;
4810;SDS011;2419;51.276;6.472;2024-02-16T08:38:23;2.70;;;2.03;;
4810;SDS011;2419;51.276;6.472;2024-02-16T08:40:51;5.60;;;2.80;;
4810;SDS011;2419;51.276;6.472;2024-02-16T08:43:19;8.07;;;2.80;;
4810;SDS011;2419;51.276;6.472;2024-02-16T08:45:47;4.23;;;2.70;;
4810;SDS011;2419;51.276;6.472;2024-02-16T08:48:16;5.27;;;2.57;;
4810;SDS011;2419;51.276;6.472;2024-02-16T08:50:45;3.20;;;2.90;;
4810;SDS011;2419;51.276;6.472;2024-02-16T08:53:13;5.20;;;2.93;;
4810;SDS011;2419;51.276;6.472;2024-02-16T08:55:44;4.67;;;2.57;;
4810;SDS011;2419;51.276;6.472;2024-02-16T08:58:12;4.63;;;2.70;;
4810;SDS011;2419;51.276;6.472;2024-02-16T09:00:40;5.00;;;2.60;;
4810;SDS011;2419;51.276;6.472;2024-02-16T09:03:08;9.20;;;3.17;;
4810;SDS011;2419;51.276;6.472;2024-02-16T09:05:37;5.73;;;2.50;;
4810;SDS011;2419;51.276;6.472;2024-02-16T09:08:05;4.90;;;3.03;;
4810;SDS011;2419;51.276;6.472;2024-02-16T09:10:33;5.23;;;2.40;;
4810;SDS011;2419;51.276;6.472;2024-02-16T09:13:05;4.63;;;2.70;;
4810;SDS011;2419;51.276;6.472;2024-02-16T09:15:35;2.57;;;2.00;;
4810;SDS011;2419;51.276;6.472;2024-02-16T09:18:03;4.03;;;2.40;;
4810;SDS011;2419;51.276;6.472;2024-02-16T09:20:32;4.43;;;2.20;;
4810;SDS011;2419;51.276;6.472;2024-02-16T09:23:00;8.40;;;2.33;;
4810;SDS011;2419;51.276;6.472;2024-02-16T09:25:29;8.30;;;2.87;;
4810;SDS011;2419;51.276;6.472;2024-02-16T09:27:57;6.80;;;2.77;;
4810;SDS011;2419;51.276;6.472;2024-02-16T09:30:26;4.43;;;2.60;;
4810;SDS011;2419;51.276;6.472;2024-02-16T09:32:54;3.50;;;2.33;;
4810;SDS011;2419;51.276;6.472;2024-02-16T09:35:22;5.43;;;2.53;;
4810;SDS011;2419;51.276;6.472;2024-02-16T09:37:50;5.17;;;2.33;;
4810;SDS011;2419;51.276;6.472;2024-02-16T09:40:18;3.50;;;2.27;;
4810;SDS011;2419;51.276;6.472;2024-02-16T09:42:48;5.10;;;2.43;;
4810;SDS011;2419;51.276;6.472;2024-02-16T09:45:17;6.50;;;2.30;;
4810;SDS011;2419;51.276;6.472;2024-02-16T09:47:46;10.33;;;2.60;;
4810;SDS011;2419;51.276;6.472;2024-02-16T09:50:28;7.30;;;2.50;;
4810;SDS011;2419;51.276;6.472;2024-02-16T09:52:57;5.40;;;2.60;;
4810;SDS011;2419;51.276;6.472;2024-02-16T09:55:25;7.03;;;2.80;;
4810;SDS011;2419;51.276;6.472;2024-02-16T09:58:00;10.63;;;2.93;;
4810;SDS011;2419;51.276;6.472;2024-02-16T10:00:31;5.20;;;2.00;;
4810;SDS011;2419;51.276;6.472;2024-02-16T10:03:01;6.70;;;2.20;;
4810;SDS011;2419;51.276;6.472;2024-02-16T10:05:30;3.43;;;2.03;;
4810;SDS011;2419;51.276;6.472;2024-02-16T10:07:58;5.07;;;2.50;;
4810;SDS011;2419;51.276;6.472;2024-02-16T10:10:27;6.33;;;2.60;;
4810;SDS011;2419;51.276;6.472;2024-02-16T10:13:00;3.77;;;2.70;;
4810;SDS011;2419;51.276;6.472;2024-02-16T10:15:30;3.40;;;2.10;;
4810;SDS011;2419;51.276;6.472;2024-02-16T10:17:58;3.20;;;2.30;;
4810;SDS011;2419;51.276;6.472;2024-02-16T10:20:29;6.40;;;2.17;;
4810;SDS011;2419;51.276;6.472;2024-02-16T10:23:03;6.90;;;2.57;;
4810;SDS011;2419;51.276;6.472;2024-02-16T10:25:35;6.57;;;2.60;;
4810;SDS011;2419;51.276;6.472;2024-02-16T10:28:05;4.60;;;2.10;;
4810;SDS011;2419;51.276;6.472;2024-02-16T10:30:34;8.67;;;2.80;;
4810;SDS011;2419;51.276;6.472;2024-02-16T10:33:09;6.43;;;2.37;;
4810;SDS011;2419;51.276;6.472;2024-02-16T10:35:40;5.87;;;2.70;;
4810;SDS011;2419;51.276;6.472;2024-02-16T10:38:09;4.13;;;2.50;;
4810;SDS011;2419;51.276;6.472;2024-02-16T10:40:39;3.80;;;2.03;;
4810;SDS011;2419;51.276;6.472;2024-02-16T10:43:08;5.03;;;2.60;;
4810;SDS011;2419;51.276;6.472;2024-02-16T10:45:37;4.60;;;2.37;;
4810;SDS011;2419;51.276;6.472;2024-02-16T10:48:07;2.53;;;2.30;;
4810;SDS011;2419;51.276;6.472;2024-02-16T10:50:37;3.80;;;2.43;;
4810;SDS011;2419;51.276;6.472;2024-02-16T10:53:08;6.53;;;2.77;;
4810;SDS011;2419;51.276;6.472;2024-02-16T10:55:39;4.10;;;2.80;;
4810;SDS011;2419;51.276;6.472;2024-02-16T10:58:09;3.87;;;2.60;;
4810;SDS011;2419;51.276;6.472;2024-02-16T11:00:47;9.23;;;2.37;;
4810;SDS011;2419;51.276;6.472;2024-02-16T11:03:21;8.50;;;3.37;;
4810;SDS011;2419;51.276;6.472;2024-02-16T11:05:55;7.07;;;2.43;;
4810;SDS011;2419;51.276;6.472;2024-02-16T11:08:25;4.53;;;2.53;;
4810;SDS011;2419;51.276;6.472;2024-02-16T11:10:55;6.20;;;2.90;;
4810;SDS011;2419;51.276;6.472;2024-02-16T11:13:25;3.33;;;2.40;;
4810;SDS011;2419;51.276;6.472;2024-02-16T11:15:57;3.63;;;2.40;;
4810;SDS011;2419;51.276;6.472;2024-02-16T11:18:27;3.30;;;2.63;;
4810;SDS011;2419;51.276;6.472;2024-02-16T11:21:01;5.83;;;2.60;;
4810;SDS011;2419;51.276;6.472;2024-02-16T11:23:30;5.80;;;3.13;;
4810;SDS011;2419;51.276;6.472;2024-02-16T11:26:02;6.73;;;2.90;;
4810;SDS011;2419;51.276;6.472;2024-02-16T11:28:31;6.10;;;2.77;;
4810;SDS011;2419;51.276;6.472;2024-02-16T11:31:00;6.03;;;3.80;;
4810;SDS011;2419;51.276;6.472;2024-02-16T11:33:29;6.17;;;3.10;;
4810;SDS011;2419;51.276;6.472;2024-02-16T11:35:58;8.63;;;3.23;;
4810;SDS011;2419;51.276;6.472;2024-02-16T11:38:30;4.60;;;3.07;;
4810;SDS011;2419;51.276;6.472;2024-02-16T11:41:01;6.70;;;3.60;;
4810;SDS011;2419;51.276;6.472;2024-02-16T11:43:30;5.43;;;3.60;;
4810;SDS011;2419;51.276;6.472;2024-02-16T11:46:10;5.67;;;3.17;;
4810;SDS011;2419;51.276;6.472;2024-02-16T11:48:38;11.17;;;5.10;;
4810;SDS011;2419;51.276;6.472;2024-02-16T11:51:08;9.07;;;3.13;;
4810;SDS011;2419;51.276;6.472;2024-02-16T11:53:36;7.43;;;4.10;;
4810;SDS011;2419;51.276;6.472;2024-02-16T11:56:04;7.33;;;3.83;;
4810;SDS011;2419;51.276;6.472;2024-02-16T11:58:33;14.03;;;3.87;;
4810;SDS011;2419;51.276;6.472;2024-02-16T12:01:03;10.13;;;3.67;;
4810;SDS011;2419;51.276;6.472;2024-02-16T12:03:40;10.30;;;3.70;;
4810;SDS011;2419;51.276;6.472;2024-02-16T12:06:18;7.90;;;3.90;;
4810;SDS011;2419;51.276;6.472;2024-02-16T12:08:49;12.47;;;3.80;;
4810;SDS011;2419;51.276;6.472;2024-02-16T12:11:18;8.70;;;4.10;;
4810;SDS011;2419;51.276;6.472;2024-02-16T12:13:47;6.30;;;3.87;;
4810;SDS011;2419;51.276;6.472;2024-02-16T12:16:15;8.37;;;4.10;;
4810;SDS011;2419;51.276;6.472;2024-02-16T12:18:46;8.80;;;4.40;;
4810;SDS011;2419;51.276;6.472;2024-02-16T12:21:17;5.67;;;4.17;;
4810;SDS011;2419;51.276;6.472;2024-02-16T12:23:46;10.07;;;4.03;;
4810;SDS011;2419;51.276;6.472;2024-02-16T12:26:14;4.77;;;4.00;;
4810;SDS011;2419;51.276;6.472;2024-02-16T12:28:42;10.20;;;4.60;;
4810;SDS011;2419;51.276;6.472;2024-02-16T12:31:10;11.90;;;5.07;;
4810;SDS011;2419;51.276;6.472;2024-02-16T12:33:45;8.30;;;4.00;;
4810;SDS011;2419;51.276;6.472;2024-02-16T12:36:13;9.50;;;4.70;;
4810;SDS011;2419;51.276;6.472;2024-02-16T12:38:44;6.27;;;3.57;;
4810;SDS011;2419;51.276;6.472;2024-02-16T12:41:12;7.27;;;4.73;;
4810;SDS011;2419;51.276;6.472;2024-02-16T12:43:40;10.07;;;4.10;;
4810;SDS011;2419;51.276;6.472;2024-02-16T12:46:08;10.33;;;4.60;;
4810;SDS011;2419;51.276;6.472;2024-02-16T12:48:36;8.97;;;4.10;;
4810;SDS011;2419;51.276;6.472;2024-02-16T12:51:04;6.13;;;4.40;;
4810;SDS011;2419;51.276;6.472;2024-02-16T12:53:34;7.03;;;4.10;;
4810;SDS011;2419;51.276;6.472;2024-02-16T12:56:07;6.87;;;4.60;;
4810;SDS011;2419;51.276;6.472;2024-02-16T12:58:35;6.43;;;4.23;;
4810;SDS011;2419;51.276;6.472;2024-02-16T13:01:04;7.40;;;4.27;;
4810;SDS011;2419;51.276;6.472;2024-02-16T13:03:45;11.40;;;4.10;;
4810;SDS011;2419;51.276;6.472;2024-02-16T13:06:13;6.17;;;3.93;;
4810;SDS011;2419;51.276;6.472;2024-02-16T13:08:43;9.30;;;4.57;;
4810;SDS011;2419;51.276;6.472;2024-02-16T13:11:11;4.93;;;4.43;;
4810;SDS011;2419;51.276;6.472;2024-02-16T13:13:39;13.10;;;5.20;;
4810;SDS011;2419;51.276;6.472;2024-02-16T13:16:07;9.13;;;5.33;;
4810;SDS011;2419;51.276;6.472;2024-02-16T13:18:36;15.07;;;5.80;;
4810;SDS011;2419;51.276;6.472;2024-02-16T13:21:04;8.30;;;4.90;;
4810;SDS011;2419;51.276;6.472;2024-02-16T13:23:33;14.93;;;6.40;;
4810;SDS011;2419;51.276;6.472;2024-02-16T13:26:03;8.97;;;5.27;;
4810;SDS011;2419;51.276;6.472;2024-02-16T13:28:32;10.77;;;5.47;;
4810;SDS011;2419;51.276;6.472;2024-02-16T13:31:00;8.00;;;5.80;;
4810;SDS011;2419;51.276;6.472;2024-02-16T13:33:28;9.20;;;5.53;;
4810;SDS011;2419;51.276;6.472;2024-02-16T13:35:57;12.00;;;6.60;;
4810;SDS011;2419;51.276;6.472;2024-02-16T13:38:25;12.83;;;7.03;;
4810;SDS011;2419;51.276;6.472;2024-02-16T13:40:53;11.27;;;6.33;;
4810;SDS011;2419;51.276;6.472;2024-02-16T13:43:22;10.50;;;6.00;;
4810;SDS011;2419;51.276;6.472;2024-02-16T13:45:51;13.63;;;7.40;;
4810;SDS011;2419;51.276;6.472;2024-02-16T13:48:20;12.30;;;6.73;;
4810;SDS011;2419;51.276;6.472;2024-02-16T13:50:49;10.47;;;7.30;;
4810;SDS011;2419;51.276;6.472;2024-02-16T13:53:17;12.50;;;6.60;;
4810;SDS011;2419;51.276;6.472;2024-02-16T13:55:49;12.53;;;7.27;;
4810;SDS011;2419;51.276;6.472;2024-02-16T13:58:17;12.07;;;6.37;;
4810;SDS011;2419;51.276;6.472;2024-02-16T14:00:46;12.33;;;7.10;;
4810;SDS011;2419;51.276;6.472;2024-02-16T14:03:15;10.60;;;7.57;;
4810;SDS011;2419;51.276;6.472;2024-02-16T14:05:44;12.60;;;7.80;;
4810;SDS011;2419;51.276;6.472;2024-02-16T14:08:13;11.90;;;7.23;;
4810;SDS011;2419;51.276;6.472;2024-02-16T14:10:42;16.27;;;8.17;;
4810;SDS011;2419;51.276;6.472;2024-02-16T14:13:10;13.97;;;8.13;;
4810;SDS011;2419;51.276;6.472;2024-02-16T14:15:38;14.93;;;8.63;;
4810;SDS011;2419;51.276;6.472;2024-02-16T14:18:08;16.47;;;7.70;;
4810;SDS011;2419;51.276;6.472;2024-02-16T14:20:47;13.70;;;7.20;;
4810;SDS011;2419;51.276;6.472;2024-02-16T14:23:15;9.83;;;6.00;;
4810;SDS011;2419;51.276;6.472;2024-02-16T14:25:43;9.40;;;5.97;;
4810;SDS011;2419;51.276;6.472;2024-02-16T14:28:11;8.33;;;6.30;;
4810;SDS011;2419;51.276;6.472;2024-02-16T14:30:39;9.40;;;5.87;;
4810;SDS011;2419;51.276;6.472;2024-02-16T14:33:09;11.60;;;6.23;;
4810;SDS011;2419;51.276;6.472;2024-02-16T14:35:38;9.83;;;5.80;;
4810;SDS011;2419;51.276;6.472;2024-02-16T14:38:06;8.13;;;5.63;;
4810;SDS011;2419;51.276;6.472;2024-02-16T14:40:34;8.37;;;5.83;;
4810;SDS011;2419;51.276;6.472;2024-02-16T14:43:03;7.97;;;5.90;;
4810;SDS011;2419;51.276;6.472;2024-02-16T14:45:31;7.13;;;5.57;;
4810;SDS011;2419;51.276;6.472;2024-02-16T14:47:59;6.63;;;5.30;;
4810;SDS011;2419;51.276;6.472;2024-02-16T14:50:29;5.83;;;4.93;;
4810;SDS011;2419;51.276;6.472;2024-02-16T14:53:01;12.87;;;6.10;;
4810;SDS011;2419;51.276;6.472;2024-02-16T14:55:29;7.77;;;5.57;;
4810;SDS011;2419;51.276;6.472;2024-02-16T14:57:58;6.00;;;4.83;;
4810;SDS011;2419;51.276;6.472;2024-02-16T15:00:26;9.77;;;5.80;;
4810;SDS011;2419;51.276;6.472;2024-02-16T15:02:54;6.53;;;5.40;;
4810;SDS011;2419;51.276;6.472;2024-02-16T15:05:22;7.50;;;5.73;;
4810;SDS011;2419;51.276;6.472;2024-02-16T15:07:51;6.77;;;5.33;;
4810;SDS011;2419;51.276;6.472;2024-02-16T15:10:20;6.30;;;5.00;;
4810;SDS011;2419;51.276;6.472;2024-02-16T15:12:48;8.60;;;5.43;;
4810;SDS011;2419;51.276;6.472;2024-02-16T15:15:16;6.63;;;5.10;;
4810;SDS011;2419;51.276;6.472;2024-02-16T15:17:44;7.70;;;5.50;;
4810;SDS011;2419;51.276;6.472;2024-02-16T15:20:14;8.30;;;6.20;;
4810;SDS011;2419;51.276;6.472;2024-02-16T15:22:43;9.50;;;6.50;;
4810;SDS011;2419;51.276;6.472;2024-02-16T15:25:20;8.40;;;5.43;;
4810;SDS011;2419;51.276;6.472;2024-02-16T15:27:49;7.47;;;5.97;;